sensor_id;sensor_type;location;lat;lon;timestamp;P1;durP1;ratioP1;P2;durP2;ratioP2
17796;SDS011;55596;53.554;9.916;2022-12-10T00:01:46;55.63;;;27.87;;
17796;SDS011;55596;53.554;9.916;2022-12-10T00:04:15;54.60;;;26.87;;
17796;SDS011;55596;53.554;9.916;2022-12-10T00:06:43;60.03;;;28.93;;
17796;SDS011;55596;53.554;9.916;2022-12-10T00:09:11;62.97;;;29.70;;
17796;SDS011;55596;53.554;9.916;2022-12-10T00:11:40;61.77;;;29.70;;
17796;SDS011;55596;53.554;9.916;2022-12-10T00:14:07;60.57;;;28.47;;
17796;SDS011;55596;53.554;9.916;2022-12-10T00:16:35;65.57;;;31.03;;
17796;SDS011;55596;53.554;9.916;2022-12-10T00:19:03;62.33;;;28.73;;
17796;SDS011;55596;53.554;9.916;2022-12-10T00:21:32;58.10;;;28.13;;
17796;SDS011;55596;53.554;9.916;2022-12-10T00:24:00;56.50;;;28.27;;
17796;SDS011;55596;53.554;9.916;2022-12-10T00:26:30;60.00;;;27.40;;
17796;SDS011;55596;53.554;9.916;2022-12-10T00:28:59;61.13;;;28.03;;
17796;SDS011;55596;53.554;9.916;2022-12-10T00:31:28;57.80;;;26.50;;
17796;SDS011;55596;53.554;9.916;2022-12-10T00:33:58;54.63;;;26.50;;
17796;SDS011;55596;53.554;9.916;2022-12-10T00:36:28;56.27;;;26.83;;
17796;SDS011;55596;53.554;9.916;2022-12-10T00:38:57;55.00;;;26.60;;
17796;SDS011;55596;53.554;9.916;2022-12-10T00:41:25;55.77;;;26.03;;
17796;SDS011;55596;53.554;9.916;2022-12-10T00:43:52;50.47;;;26.43;;
17796;SDS011;55596;53.554;9.916;2022-12-10T00:46:21;47.47;;;24.20;;
17796;SDS011;55596;53.554;9.916;2022-12-10T00:48:48;52.00;;;25.43;;
17796;SDS011;55596;53.554;9.916;2022-12-10T00:51:17;46.47;;;23.40;;
17796;SDS011;55596;53.554;9.916;2022-12-10T00:53:45;51.77;;;24.67;;
17796;SDS011;55596;53.554;9.916;2022-12-10T00:56:16;44.60;;;23.03;;
17796;SDS011;55596;53.554;9.916;2022-12-10T00:58:44;47.77;;;23.63;;
17796;SDS011;55596;53.554;9.916;2022-12-10T01:01:12;48.17;;;24.03;;
17796;SDS011;55596;53.554;9.916;2022-12-10T01:03:43;46.97;;;22.90;;
17796;SDS011;55596;53.554;9.916;2022-12-10T01:06:12;46.83;;;23.30;;
17796;SDS011;55596;53.554;9.916;2022-12-10T01:08:40;50.07;;;24.27;;
17796;SDS011;55596;53.554;9.916;2022-12-10T01:11:08;48.40;;;24.00;;
17796;SDS011;55596;53.554;9.916;2022-12-10T01:13:37;45.20;;;22.70;;
17796;SDS011;55596;53.554;9.916;2022-12-10T01:16:06;46.27;;;24.23;;
17796;SDS011;55596;53.554;9.916;2022-12-10T01:18:34;38.97;;;21.33;;
17796;SDS011;55596;53.554;9.916;2022-12-10T01:21:01;46.20;;;23.97;;
17796;SDS011;55596;53.554;9.916;2022-12-10T01:23:30;42.33;;;22.17;;
17796;SDS011;55596;53.554;9.916;2022-12-10T01:25:59;42.77;;;23.13;;
17796;SDS011;55596;53.554;9.916;2022-12-10T01:28:28;39.53;;;20.57;;
17796;SDS011;55596;53.554;9.916;2022-12-10T01:31:00;40.07;;;22.43;;
17796;SDS011;55596;53.554;9.916;2022-12-10T01:33:28;43.77;;;22.53;;
17796;SDS011;55596;53.554;9.916;2022-12-10T01:35:55;40.80;;;21.87;;
17796;SDS011;55596;53.554;9.916;2022-12-10T01:38:27;40.60;;;20.50;;
17796;SDS011;55596;53.554;9.916;2022-12-10T01:40:54;37.73;;;20.30;;
17796;SDS011;55596;53.554;9.916;2022-12-10T01:43:20;36.60;;;20.50;;
17796;SDS011;55596;53.554;9.916;2022-12-10T01:45:47;33.43;;;18.47;;
17796;SDS011;55596;53.554;9.916;2022-12-10T01:48:17;34.97;;;18.87;;
17796;SDS011;55596;53.554;9.916;2022-12-10T01:50:44;39.93;;;20.83;;
17796;SDS011;55596;53.554;9.916;2022-12-10T01:53:11;32.87;;;18.93;;
17796;SDS011;55596;53.554;9.916;2022-12-10T01:55:40;34.47;;;19.83;;
17796;SDS011;55596;53.554;9.916;2022-12-10T01:58:10;32.37;;;18.03;;
17796;SDS011;55596;53.554;9.916;2022-12-10T02:00:40;32.83;;;18.53;;
17796;SDS011;55596;53.554;9.916;2022-12-10T02:03:13;34.43;;;19.37;;
17796;SDS011;55596;53.554;9.916;2022-12-10T02:05:48;32.10;;;17.70;;
17796;SDS011;55596;53.554;9.916;2022-12-10T02:08:21;31.50;;;19.23;;
17796;SDS011;55596;53.554;9.916;2022-12-10T02:10:55;28.37;;;16.63;;
17796;SDS011;55596;53.554;9.916;2022-12-10T02:13:29;31.40;;;17.63;;
17796;SDS011;55596;53.554;9.916;2022-12-10T02:16:02;32.33;;;18.43;;
17796;SDS011;55596;53.554;9.916;2022-12-10T02:18:36;29.23;;;16.57;;
17796;SDS011;55596;53.554;9.916;2022-12-10T02:21:08;32.07;;;17.90;;
17796;SDS011;55596;53.554;9.916;2022-12-10T02:23:38;31.13;;;17.27;;
17796;SDS011;55596;53.554;9.916;2022-12-10T02:26:10;30.67;;;16.63;;
17796;SDS011;55596;53.554;9.916;2022-12-10T02:28:44;30.07;;;16.40;;
17796;SDS011;55596;53.554;9.916;2022-12-10T02:31:18;30.27;;;16.33;;
17796;SDS011;55596;53.554;9.916;2022-12-10T02:33:50;27.10;;;16.03;;
17796;SDS011;55596;53.554;9.916;2022-12-10T02:36:21;30.57;;;17.10;;
17796;SDS011;55596;53.554;9.916;2022-12-10T02:38:51;30.53;;;17.87;;
17796;SDS011;55596;53.554;9.916;2022-12-10T02:41:22;26.80;;;16.03;;
17796;SDS011;55596;53.554;9.916;2022-12-10T02:43:52;29.67;;;16.67;;
17796;SDS011;55596;53.554;9.916;2022-12-10T02:46:23;28.17;;;16.27;;
17796;SDS011;55596;53.554;9.916;2022-12-10T02:48:53;28.13;;;15.87;;
17796;SDS011;55596;53.554;9.916;2022-12-10T02:51:20;28.47;;;16.83;;
17796;SDS011;55596;53.554;9.916;2022-12-10T02:53:47;26.43;;;16.67;;
17796;SDS011;55596;53.554;9.916;2022-12-10T02:56:26;17.40;;;11.10;;
17796;SDS011;55596;53.554;9.916;2022-12-10T02:59:01;23.10;;;13.70;;
17796;SDS011;55596;53.554;9.916;2022-12-10T03:01:39;26.07;;;15.47;;
17796;SDS011;55596;53.554;9.916;2022-12-10T03:04:13;26.30;;;15.73;;
17796;SDS011;55596;53.554;9.916;2022-12-10T03:06:45;23.40;;;13.90;;
17796;SDS011;55596;53.554;9.916;2022-12-10T03:09:17;21.80;;;13.40;;
17796;SDS011;55596;53.554;9.916;2022-12-10T03:11:48;17.67;;;10.80;;
17796;SDS011;55596;53.554;9.916;2022-12-10T03:14:22;20.17;;;11.90;;
17796;SDS011;55596;53.554;9.916;2022-12-10T03:16:54;19.90;;;12.63;;
17796;SDS011;55596;53.554;9.916;2022-12-10T03:19:24;23.27;;;13.63;;
17796;SDS011;55596;53.554;9.916;2022-12-10T03:21:55;17.40;;;10.77;;
17796;SDS011;55596;53.554;9.916;2022-12-10T03:24:24;17.27;;;10.47;;
17796;SDS011;55596;53.554;9.916;2022-12-10T03:26:52;14.47;;;9.90;;
17796;SDS011;55596;53.554;9.916;2022-12-10T03:29:21;16.90;;;10.57;;
17796;SDS011;55596;53.554;9.916;2022-12-10T03:31:54;17.87;;;11.33;;
17796;SDS011;55596;53.554;9.916;2022-12-10T03:34:22;19.37;;;11.63;;
17796;SDS011;55596;53.554;9.916;2022-12-10T03:36:49;18.70;;;11.97;;
17796;SDS011;55596;53.554;9.916;2022-12-10T03:39:16;19.40;;;12.07;;
17796;SDS011;55596;53.554;9.916;2022-12-10T03:41:44;22.67;;;12.30;;
17796;SDS011;55596;53.554;9.916;2022-12-10T03:44:11;19.90;;;12.20;;
17796;SDS011;55596;53.554;9.916;2022-12-10T03:46:38;19.40;;;11.50;;
17796;SDS011;55596;53.554;9.916;2022-12-10T03:49:06;19.73;;;12.83;;
17796;SDS011;55596;53.554;9.916;2022-12-10T03:51:33;18.37;;;11.30;;
17796;SDS011;55596;53.554;9.916;2022-12-10T03:54:00;17.83;;;11.53;;
17796;SDS011;55596;53.554;9.916;2022-12-10T03:56:26;18.33;;;10.80;;
17796;SDS011;55596;53.554;9.916;2022-12-10T03:58:53;21.27;;;12.63;;
17796;SDS011;55596;53.554;9.916;2022-12-10T04:01:20;22.27;;;12.47;;
17796;SDS011;55596;53.554;9.916;2022-12-10T04:03:47;19.83;;;13.00;;
17796;SDS011;55596;53.554;9.916;2022-12-10T04:06:16;19.50;;;12.37;;
17796;SDS011;55596;53.554;9.916;2022-12-10T04:08:44;16.87;;;11.90;;
17796;SDS011;55596;53.554;9.916;2022-12-10T04:11:12;17.97;;;11.63;;
17796;SDS011;55596;53.554;9.916;2022-12-10T04:13:41;18.00;;;11.10;;
17796;SDS011;55596;53.554;9.916;2022-12-10T04:16:25;20.53;;;11.70;;
17796;SDS011;55596;53.554;9.916;2022-12-10T04:18:53;19.73;;;12.13;;
17796;SDS011;55596;53.554;9.916;2022-12-10T04:21:22;20.93;;;13.33;;
17796;SDS011;55596;53.554;9.916;2022-12-10T04:24:07;19.70;;;12.87;;
17796;SDS011;55596;53.554;9.916;2022-12-10T04:26:52;18.90;;;11.47;;
17796;SDS011;55596;53.554;9.916;2022-12-10T04:29:20;16.23;;;11.10;;
17796;SDS011;55596;53.554;9.916;2022-12-10T04:31:48;16.77;;;11.00;;
17796;SDS011;55596;53.554;9.916;2022-12-10T04:34:15;15.87;;;10.53;;
17796;SDS011;55596;53.554;9.916;2022-12-10T04:36:43;16.73;;;10.93;;
17796;SDS011;55596;53.554;9.916;2022-12-10T04:39:10;19.50;;;11.10;;
17796;SDS011;55596;53.554;9.916;2022-12-10T04:41:38;16.57;;;10.73;;
17796;SDS011;55596;53.554;9.916;2022-12-10T04:44:06;18.10;;;11.20;;
17796;SDS011;55596;53.554;9.916;2022-12-10T04:46:33;19.67;;;11.90;;
17796;SDS011;55596;53.554;9.916;2022-12-10T04:49:00;16.53;;;11.10;;
17796;SDS011;55596;53.554;9.916;2022-12-10T04:51:27;18.10;;;11.87;;
17796;SDS011;55596;53.554;9.916;2022-12-10T04:53:55;18.13;;;12.13;;
17796;SDS011;55596;53.554;9.916;2022-12-10T04:56:22;17.03;;;11.27;;
17796;SDS011;55596;53.554;9.916;2022-12-10T04:58:49;17.03;;;11.90;;
17796;SDS011;55596;53.554;9.916;2022-12-10T05:01:17;17.40;;;11.00;;
17796;SDS011;55596;53.554;9.916;2022-12-10T05:03:44;17.77;;;11.50;;
17796;SDS011;55596;53.554;9.916;2022-12-10T05:06:12;14.73;;;11.07;;
17796;SDS011;55596;53.554;9.916;2022-12-10T05:08:40;16.50;;;11.47;;
17796;SDS011;55596;53.554;9.916;2022-12-10T05:11:10;16.33;;;10.73;;
17796;SDS011;55596;53.554;9.916;2022-12-10T05:13:38;17.07;;;11.83;;
17796;SDS011;55596;53.554;9.916;2022-12-10T05:16:06;17.23;;;10.87;;
17796;SDS011;55596;53.554;9.916;2022-12-10T05:18:35;18.23;;;11.43;;
17796;SDS011;55596;53.554;9.916;2022-12-10T05:21:03;15.50;;;9.27;;
17796;SDS011;55596;53.554;9.916;2022-12-10T05:23:32;12.63;;;9.00;;
17796;SDS011;55596;53.554;9.916;2022-12-10T05:25:59;15.70;;;10.40;;
17796;SDS011;55596;53.554;9.916;2022-12-10T05:28:28;18.53;;;10.27;;
17796;SDS011;55596;53.554;9.916;2022-12-10T05:30:56;15.50;;;9.73;;
17796;SDS011;55596;53.554;9.916;2022-12-10T05:33:24;15.03;;;10.20;;
17796;SDS011;55596;53.554;9.916;2022-12-10T05:35:52;17.63;;;10.83;;
17796;SDS011;55596;53.554;9.916;2022-12-10T05:38:20;14.57;;;10.30;;
17796;SDS011;55596;53.554;9.916;2022-12-10T05:40:47;13.80;;;9.80;;
17796;SDS011;55596;53.554;9.916;2022-12-10T05:43:14;15.83;;;10.70;;
17796;SDS011;55596;53.554;9.916;2022-12-10T05:45:43;14.07;;;9.37;;
17796;SDS011;55596;53.554;9.916;2022-12-10T05:48:10;14.07;;;8.97;;
17796;SDS011;55596;53.554;9.916;2022-12-10T05:50:38;13.30;;;9.03;;
17796;SDS011;55596;53.554;9.916;2022-12-10T05:53:05;12.97;;;9.00;;
17796;SDS011;55596;53.554;9.916;2022-12-10T05:55:32;15.87;;;9.20;;
17796;SDS011;55596;53.554;9.916;2022-12-10T05:58:00;14.07;;;9.17;;
17796;SDS011;55596;53.554;9.916;2022-12-10T06:00:27;13.47;;;8.77;;
17796;SDS011;55596;53.554;9.916;2022-12-10T06:02:55;12.90;;;8.43;;
17796;SDS011;55596;53.554;9.916;2022-12-10T06:05:22;12.63;;;8.67;;
17796;SDS011;55596;53.554;9.916;2022-12-10T06:07:49;16.93;;;9.90;;
17796;SDS011;55596;53.554;9.916;2022-12-10T06:10:16;12.60;;;8.00;;
17796;SDS011;55596;53.554;9.916;2022-12-10T06:12:43;13.93;;;9.73;;
17796;SDS011;55596;53.554;9.916;2022-12-10T06:15:09;13.83;;;9.37;;
17796;SDS011;55596;53.554;9.916;2022-12-10T06:17:36;14.20;;;10.00;;
17796;SDS011;55596;53.554;9.916;2022-12-10T06:20:05;13.93;;;10.13;;
17796;SDS011;55596;53.554;9.916;2022-12-10T06:22:33;13.63;;;9.40;;
17796;SDS011;55596;53.554;9.916;2022-12-10T06:25:00;14.43;;;9.13;;
17796;SDS011;55596;53.554;9.916;2022-12-10T06:27:29;15.37;;;9.33;;
17796;SDS011;55596;53.554;9.916;2022-12-10T06:29:56;15.83;;;9.50;;
17796;SDS011;55596;53.554;9.916;2022-12-10T06:32:23;13.73;;;9.00;;
17796;SDS011;55596;53.554;9.916;2022-12-10T06:34:50;15.27;;;10.20;;
17796;SDS011;55596;53.554;9.916;2022-12-10T06:37:18;14.93;;;9.70;;
17796;SDS011;55596;53.554;9.916;2022-12-10T06:39:45;15.07;;;9.03;;
17796;SDS011;55596;53.554;9.916;2022-12-10T06:42:12;15.63;;;9.07;;
17796;SDS011;55596;53.554;9.916;2022-12-10T06:44:39;14.67;;;9.27;;
17796;SDS011;55596;53.554;9.916;2022-12-10T06:47:06;14.70;;;9.33;;
17796;SDS011;55596;53.554;9.916;2022-12-10T06:49:32;14.13;;;9.37;;
17796;SDS011;55596;53.554;9.916;2022-12-10T06:51:59;14.90;;;9.53;;
17796;SDS011;55596;53.554;9.916;2022-12-10T06:54:27;14.20;;;9.57;;
17796;SDS011;55596;53.554;9.916;2022-12-10T06:56:54;13.47;;;9.13;;
17796;SDS011;55596;53.554;9.916;2022-12-10T06:59:21;14.10;;;10.17;;
17796;SDS011;55596;53.554;9.916;2022-12-10T07:01:48;13.90;;;9.73;;
17796;SDS011;55596;53.554;9.916;2022-12-10T07:04:15;19.17;;;9.63;;
17796;SDS011;55596;53.554;9.916;2022-12-10T07:06:43;15.57;;;9.70;;
17796;SDS011;55596;53.554;9.916;2022-12-10T07:09:10;14.80;;;10.20;;
17796;SDS011;55596;53.554;9.916;2022-12-10T07:11:38;17.80;;;10.30;;
17796;SDS011;55596;53.554;9.916;2022-12-10T07:14:05;22.23;;;10.20;;
17796;SDS011;55596;53.554;9.916;2022-12-10T07:16:32;12.77;;;9.77;;
17796;SDS011;55596;53.554;9.916;2022-12-10T07:19:00;13.90;;;8.70;;
17796;SDS011;55596;53.554;9.916;2022-12-10T07:21:28;14.17;;;9.13;;
17796;SDS011;55596;53.554;9.916;2022-12-10T07:23:58;12.47;;;9.63;;
17796;SDS011;55596;53.554;9.916;2022-12-10T07:26:27;16.40;;;10.00;;
17796;SDS011;55596;53.554;9.916;2022-12-10T07:28:56;16.07;;;10.00;;
17796;SDS011;55596;53.554;9.916;2022-12-10T07:31:24;20.10;;;11.33;;
17796;SDS011;55596;53.554;9.916;2022-12-10T07:33:52;13.97;;;9.93;;
17796;SDS011;55596;53.554;9.916;2022-12-10T07:36:20;95.97;;;17.50;;
17796;SDS011;55596;53.554;9.916;2022-12-10T07:38:48;56.47;;;14.30;;
17796;SDS011;55596;53.554;9.916;2022-12-10T07:41:15;25.57;;;10.63;;
17796;SDS011;55596;53.554;9.916;2022-12-10T07:43:43;13.47;;;8.67;;
17796;SDS011;55596;53.554;9.916;2022-12-10T07:46:13;12.80;;;8.90;;
17796;SDS011;55596;53.554;9.916;2022-12-10T07:48:41;13.63;;;8.43;;
17796;SDS011;55596;53.554;9.916;2022-12-10T07:51:09;12.47;;;8.53;;
17796;SDS011;55596;53.554;9.916;2022-12-10T07:53:36;14.50;;;8.87;;
17796;SDS011;55596;53.554;9.916;2022-12-10T07:56:04;15.33;;;9.03;;
17796;SDS011;55596;53.554;9.916;2022-12-10T07:58:32;13.40;;;9.43;;
17796;SDS011;55596;53.554;9.916;2022-12-10T08:00:59;13.00;;;8.90;;
17796;SDS011;55596;53.554;9.916;2022-12-10T08:03:33;10.97;;;8.53;;
17796;SDS011;55596;53.554;9.916;2022-12-10T08:06:01;13.07;;;8.33;;
17796;SDS011;55596;53.554;9.916;2022-12-10T08:08:28;13.07;;;9.37;;
17796;SDS011;55596;53.554;9.916;2022-12-10T08:10:55;13.10;;;9.23;;
17796;SDS011;55596;53.554;9.916;2022-12-10T08:13:24;11.53;;;8.37;;
17796;SDS011;55596;53.554;9.916;2022-12-10T08:15:51;11.90;;;7.93;;
17796;SDS011;55596;53.554;9.916;2022-12-10T08:18:18;11.47;;;8.13;;
17796;SDS011;55596;53.554;9.916;2022-12-10T08:20:46;11.60;;;8.30;;
17796;SDS011;55596;53.554;9.916;2022-12-10T08:23:13;9.43;;;7.30;;
17796;SDS011;55596;53.554;9.916;2022-12-10T08:25:40;10.30;;;7.57;;
17796;SDS011;55596;53.554;9.916;2022-12-10T08:28:06;12.03;;;7.90;;
17796;SDS011;55596;53.554;9.916;2022-12-10T08:30:34;11.03;;;7.33;;
17796;SDS011;55596;53.554;9.916;2022-12-10T08:33:01;9.00;;;7.43;;
17796;SDS011;55596;53.554;9.916;2022-12-10T08:35:28;11.37;;;8.10;;
17796;SDS011;55596;53.554;9.916;2022-12-10T08:37:56;11.03;;;7.77;;
17796;SDS011;55596;53.554;9.916;2022-12-10T08:40:23;10.33;;;7.90;;
17796;SDS011;55596;53.554;9.916;2022-12-10T08:42:51;11.53;;;7.77;;
17796;SDS011;55596;53.554;9.916;2022-12-10T08:45:18;10.10;;;7.47;;
17796;SDS011;55596;53.554;9.916;2022-12-10T08:47:45;10.47;;;7.47;;
17796;SDS011;55596;53.554;9.916;2022-12-10T08:50:11;11.97;;;8.00;;
17796;SDS011;55596;53.554;9.916;2022-12-10T08:52:38;10.17;;;7.57;;
17796;SDS011;55596;53.554;9.916;2022-12-10T08:55:07;10.73;;;7.10;;
17796;SDS011;55596;53.554;9.916;2022-12-10T08:57:34;13.07;;;7.17;;
17796;SDS011;55596;53.554;9.916;2022-12-10T09:00:01;10.33;;;7.07;;
17796;SDS011;55596;53.554;9.916;2022-12-10T09:02:29;13.10;;;8.37;;
17796;SDS011;55596;53.554;9.916;2022-12-10T09:04:56;8.17;;;6.47;;
17796;SDS011;55596;53.554;9.916;2022-12-10T09:07:23;10.03;;;6.40;;
17796;SDS011;55596;53.554;9.916;2022-12-10T09:09:49;8.33;;;6.73;;
17796;SDS011;55596;53.554;9.916;2022-12-10T09:12:18;9.13;;;7.03;;
17796;SDS011;55596;53.554;9.916;2022-12-10T09:14:44;9.97;;;7.13;;
17796;SDS011;55596;53.554;9.916;2022-12-10T09:17:11;9.83;;;7.00;;
17796;SDS011;55596;53.554;9.916;2022-12-10T09:19:38;9.73;;;6.87;;
17796;SDS011;55596;53.554;9.916;2022-12-10T09:22:05;9.37;;;6.53;;
17796;SDS011;55596;53.554;9.916;2022-12-10T09:24:33;9.63;;;6.90;;
17796;SDS011;55596;53.554;9.916;2022-12-10T09:27:00;10.50;;;7.67;;
17796;SDS011;55596;53.554;9.916;2022-12-10T09:29:30;8.40;;;6.97;;
17796;SDS011;55596;53.554;9.916;2022-12-10T09:31:56;9.20;;;7.03;;
17796;SDS011;55596;53.554;9.916;2022-12-10T09:34:23;9.80;;;7.30;;
17796;SDS011;55596;53.554;9.916;2022-12-10T09:36:50;8.83;;;6.90;;
17796;SDS011;55596;53.554;9.916;2022-12-10T09:39:17;8.43;;;6.73;;
17796;SDS011;55596;53.554;9.916;2022-12-10T09:41:54;8.53;;;6.30;;
17796;SDS011;55596;53.554;9.916;2022-12-10T09:44:43;12.37;;;7.80;;
17796;SDS011;55596;53.554;9.916;2022-12-10T09:47:18;9.50;;;7.57;;
17796;SDS011;55596;53.554;9.916;2022-12-10T09:49:49;9.27;;;6.70;;
17796;SDS011;55596;53.554;9.916;2022-12-10T09:52:24;9.17;;;6.53;;
17796;SDS011;55596;53.554;9.916;2022-12-10T09:55:03;9.77;;;7.23;;
17796;SDS011;55596;53.554;9.916;2022-12-10T09:57:38;8.83;;;6.87;;
17796;SDS011;55596;53.554;9.916;2022-12-10T10:00:15;9.20;;;6.97;;
17796;SDS011;55596;53.554;9.916;2022-12-10T10:02:45;10.20;;;6.83;;
17796;SDS011;55596;53.554;9.916;2022-12-10T10:05:13;9.83;;;7.57;;
17796;SDS011;55596;53.554;9.916;2022-12-10T10:07:48;9.90;;;7.37;;
17796;SDS011;55596;53.554;9.916;2022-12-10T10:10:19;9.03;;;7.13;;
17796;SDS011;55596;53.554;9.916;2022-12-10T10:12:50;10.07;;;7.07;;
17796;SDS011;55596;53.554;9.916;2022-12-10T10:15:24;10.00;;;7.20;;
17796;SDS011;55596;53.554;9.916;2022-12-10T10:17:54;8.90;;;6.60;;
17796;SDS011;55596;53.554;9.916;2022-12-10T10:20:24;11.30;;;7.47;;
17796;SDS011;55596;53.554;9.916;2022-12-10T10:22:51;12.43;;;8.57;;
17796;SDS011;55596;53.554;9.916;2022-12-10T10:25:21;9.27;;;6.93;;
17796;SDS011;55596;53.554;9.916;2022-12-10T10:27:48;9.93;;;7.20;;
17796;SDS011;55596;53.554;9.916;2022-12-10T10:30:17;9.07;;;7.13;;
17796;SDS011;55596;53.554;9.916;2022-12-10T10:32:47;9.63;;;7.37;;
17796;SDS011;55596;53.554;9.916;2022-12-10T10:35:23;12.33;;;7.23;;
17796;SDS011;55596;53.554;9.916;2022-12-10T10:37:55;9.90;;;6.70;;
17796;SDS011;55596;53.554;9.916;2022-12-10T10:40:25;9.50;;;7.20;;
17796;SDS011;55596;53.554;9.916;2022-12-10T10:42:55;8.33;;;7.00;;
17796;SDS011;55596;53.554;9.916;2022-12-10T10:45:34;8.97;;;7.13;;
17796;SDS011;55596;53.554;9.916;2022-12-10T10:48:09;10.97;;;7.23;;
17796;SDS011;55596;53.554;9.916;2022-12-10T10:50:38;10.03;;;6.73;;
17796;SDS011;55596;53.554;9.916;2022-12-10T10:53:20;10.03;;;7.10;;
17796;SDS011;55596;53.554;9.916;2022-12-10T10:55:48;9.40;;;7.13;;
17796;SDS011;55596;53.554;9.916;2022-12-10T10:58:17;10.33;;;8.27;;
17796;SDS011;55596;53.554;9.916;2022-12-10T11:00:52;12.53;;;9.13;;
17796;SDS011;55596;53.554;9.916;2022-12-10T11:03:23;12.60;;;9.10;;
17796;SDS011;55596;53.554;9.916;2022-12-10T11:05:50;11.23;;;8.83;;
17796;SDS011;55596;53.554;9.916;2022-12-10T11:08:18;10.03;;;7.70;;
17796;SDS011;55596;53.554;9.916;2022-12-10T11:10:48;10.07;;;7.90;;
17796;SDS011;55596;53.554;9.916;2022-12-10T11:13:22;12.20;;;7.13;;
17796;SDS011;55596;53.554;9.916;2022-12-10T11:15:54;9.03;;;6.50;;
17796;SDS011;55596;53.554;9.916;2022-12-10T11:18:26;7.83;;;6.07;;
17796;SDS011;55596;53.554;9.916;2022-12-10T11:20:58;7.80;;;6.30;;
17796;SDS011;55596;53.554;9.916;2022-12-10T11:23:27;8.27;;;6.90;;
17796;SDS011;55596;53.554;9.916;2022-12-10T11:25:58;10.47;;;7.27;;
17796;SDS011;55596;53.554;9.916;2022-12-10T11:28:37;9.90;;;7.47;;
17796;SDS011;55596;53.554;9.916;2022-12-10T11:31:14;11.70;;;8.63;;
17796;SDS011;55596;53.554;9.916;2022-12-10T11:33:57;12.07;;;8.10;;
17796;SDS011;55596;53.554;9.916;2022-12-10T11:36:32;10.47;;;7.67;;
17796;SDS011;55596;53.554;9.916;2022-12-10T11:39:07;9.93;;;7.20;;
17796;SDS011;55596;53.554;9.916;2022-12-10T11:41:46;10.03;;;6.93;;
17796;SDS011;55596;53.554;9.916;2022-12-10T11:44:20;11.70;;;8.23;;
17796;SDS011;55596;53.554;9.916;2022-12-10T11:47:14;10.47;;;8.10;;
17796;SDS011;55596;53.554;9.916;2022-12-10T11:49:57;10.37;;;7.87;;
17796;SDS011;55596;53.554;9.916;2022-12-10T11:52:37;12.50;;;8.47;;
17796;SDS011;55596;53.554;9.916;2022-12-10T11:55:18;11.60;;;8.40;;
17796;SDS011;55596;53.554;9.916;2022-12-10T11:57:54;8.67;;;6.70;;
17796;SDS011;55596;53.554;9.916;2022-12-10T12:00:33;10.93;;;7.87;;
17796;SDS011;55596;53.554;9.916;2022-12-10T12:03:08;10.97;;;8.17;;
17796;SDS011;55596;53.554;9.916;2022-12-10T12:05:55;12.17;;;8.40;;
17796;SDS011;55596;53.554;9.916;2022-12-10T12:08:35;12.13;;;9.13;;
17796;SDS011;55596;53.554;9.916;2022-12-10T12:11:12;10.43;;;7.97;;
17796;SDS011;55596;53.554;9.916;2022-12-10T12:13:48;12.10;;;8.80;;
17796;SDS011;55596;53.554;9.916;2022-12-10T12:16:22;11.63;;;9.23;;
17796;SDS011;55596;53.554;9.916;2022-12-10T12:18:54;12.17;;;9.00;;
17796;SDS011;55596;53.554;9.916;2022-12-10T12:21:26;11.37;;;8.83;;
17796;SDS011;55596;53.554;9.916;2022-12-10T12:23:54;12.97;;;9.20;;
17796;SDS011;55596;53.554;9.916;2022-12-10T12:26:25;12.97;;;9.30;;
17796;SDS011;55596;53.554;9.916;2022-12-10T12:28:56;12.27;;;8.77;;
17796;SDS011;55596;53.554;9.916;2022-12-10T12:31:34;15.27;;;9.50;;
17796;SDS011;55596;53.554;9.916;2022-12-10T12:34:05;11.57;;;9.53;;
17796;SDS011;55596;53.554;9.916;2022-12-10T12:36:43;12.20;;;8.77;;
17796;SDS011;55596;53.554;9.916;2022-12-10T12:39:12;11.87;;;8.80;;
17796;SDS011;55596;53.554;9.916;2022-12-10T12:41:46;13.50;;;9.50;;
17796;SDS011;55596;53.554;9.916;2022-12-10T12:44:21;12.23;;;8.80;;
17796;SDS011;55596;53.554;9.916;2022-12-10T12:46:55;12.27;;;9.23;;
17796;SDS011;55596;53.554;9.916;2022-12-10T12:49:26;12.43;;;8.93;;
17796;SDS011;55596;53.554;9.916;2022-12-10T12:51:58;12.97;;;8.77;;
17796;SDS011;55596;53.554;9.916;2022-12-10T12:54:28;12.47;;;9.00;;
17796;SDS011;55596;53.554;9.916;2022-12-10T12:56:57;10.57;;;8.07;;
17796;SDS011;55596;53.554;9.916;2022-12-10T12:59:32;11.87;;;8.70;;
17796;SDS011;55596;53.554;9.916;2022-12-10T13:02:08;11.40;;;8.13;;
17796;SDS011;55596;53.554;9.916;2022-12-10T13:04:45;9.87;;;7.03;;
17796;SDS011;55596;53.554;9.916;2022-12-10T13:10:42;13.80;;;8.80;;
17796;SDS011;55596;53.554;9.916;2022-12-10T13:22:05;11.93;;;9.30;;
17796;SDS011;55596;53.554;9.916;2022-12-10T13:27:40;13.07;;;9.13;;
17796;SDS011;55596;53.554;9.916;2022-12-10T13:30:32;10.70;;;8.43;;
17796;SDS011;55596;53.554;9.916;2022-12-10T13:33:10;14.63;;;9.50;;
17796;SDS011;55596;53.554;9.916;2022-12-10T13:38:26;12.60;;;8.73;;
17796;SDS011;55596;53.554;9.916;2022-12-10T13:40:58;12.23;;;8.43;;
17796;SDS011;55596;53.554;9.916;2022-12-10T13:43:53;18.47;;;9.13;;
17796;SDS011;55596;53.554;9.916;2022-12-10T13:46:56;12.17;;;9.20;;
17796;SDS011;55596;53.554;9.916;2022-12-10T13:49:25;12.97;;;9.47;;
17796;SDS011;55596;53.554;9.916;2022-12-10T13:51:55;13.87;;;9.27;;
17796;SDS011;55596;53.554;9.916;2022-12-10T14:00:16;12.10;;;9.30;;
17796;SDS011;55596;53.554;9.916;2022-12-10T14:02:58;12.93;;;9.60;;
17796;SDS011;55596;53.554;9.916;2022-12-10T14:08:38;14.00;;;9.40;;
17796;SDS011;55596;53.554;9.916;2022-12-10T14:11:10;10.57;;;8.33;;
17796;SDS011;55596;53.554;9.916;2022-12-10T14:13:45;13.30;;;9.37;;
17796;SDS011;55596;53.554;9.916;2022-12-10T14:16:20;13.17;;;8.67;;
17796;SDS011;55596;53.554;9.916;2022-12-10T14:18:52;12.40;;;8.50;;
17796;SDS011;55596;53.554;9.916;2022-12-10T14:21:21;13.00;;;8.40;;
17796;SDS011;55596;53.554;9.916;2022-12-10T14:23:49;13.17;;;9.17;;
17796;SDS011;55596;53.554;9.916;2022-12-10T14:26:17;12.07;;;9.47;;
17796;SDS011;55596;53.554;9.916;2022-12-10T14:28:47;14.53;;;8.53;;
17796;SDS011;55596;53.554;9.916;2022-12-10T14:31:16;11.73;;;8.93;;
17796;SDS011;55596;53.554;9.916;2022-12-10T14:33:46;13.07;;;8.97;;
17796;SDS011;55596;53.554;9.916;2022-12-10T14:36:16;11.33;;;8.20;;
17796;SDS011;55596;53.554;9.916;2022-12-10T14:38:48;10.37;;;8.07;;
17796;SDS011;55596;53.554;9.916;2022-12-10T14:41:17;12.45;;;9.05;;
17796;SDS011;55596;53.554;9.916;2022-12-10T14:43:48;12.97;;;9.50;;
17796;SDS011;55596;53.554;9.916;2022-12-10T14:46:17;16.20;;;9.60;;
17796;SDS011;55596;53.554;9.916;2022-12-10T14:48:49;14.30;;;9.37;;
17796;SDS011;55596;53.554;9.916;2022-12-10T14:51:18;13.03;;;9.00;;
17796;SDS011;55596;53.554;9.916;2022-12-10T14:53:47;12.03;;;9.27;;
17796;SDS011;55596;53.554;9.916;2022-12-10T14:56:19;12.90;;;9.70;;
17796;SDS011;55596;53.554;9.916;2022-12-10T14:58:51;13.37;;;9.40;;
17796;SDS011;55596;53.554;9.916;2022-12-10T15:01:26;12.30;;;8.60;;
17796;SDS011;55596;53.554;9.916;2022-12-10T15:03:55;11.17;;;8.90;;
17796;SDS011;55596;53.554;9.916;2022-12-10T15:06:25;13.87;;;9.03;;
17796;SDS011;55596;53.554;9.916;2022-12-10T15:08:53;14.13;;;9.50;;
17796;SDS011;55596;53.554;9.916;2022-12-10T15:11:23;15.73;;;9.90;;
17796;SDS011;55596;53.554;9.916;2022-12-10T15:13:52;14.77;;;9.83;;
17796;SDS011;55596;53.554;9.916;2022-12-10T15:16:29;14.73;;;9.37;;